sensor_id;sensor_type;location;lat;lon;timestamp;P1;durP1;ratioP1;P2;durP2;ratioP2
2177;SDS011;1095;50.992;6.798;2022-07-06T00:02:10;6.93;;;4.18;;
2177;SDS011;1095;50.992;6.798;2022-07-06T00:04:36;7.22;;;4.30;;
2177;SDS011;1095;50.992;6.798;2022-07-06T00:07:03;6.18;;;4.45;;
2177;SDS011;1095;50.992;6.798;2022-07-06T00:09:30;7.70;;;5.03;;
2177;SDS011;1095;50.992;6.798;2022-07-06T00:11:56;7.70;;;4.55;;
2177;SDS011;1095;50.992;6.798;2022-07-06T00:14:23;7.60;;;4.82;;
2177;SDS011;1095;50.992;6.798;2022-07-06T00:16:51;7.30;;;4.63;;
2177;SDS011;1095;50.992;6.798;2022-07-06T00:19:18;5.57;;;4.53;;
2177;SDS011;1095;50.992;6.798;2022-07-06T00:21:44;9.75;;;4.63;;
2177;SDS011;1095;50.992;6.798;2022-07-06T00:24:11;7.68;;;4.88;;
2177;SDS011;1095;50.992;6.798;2022-07-06T00:26:37;10.50;;;5.40;;
2177;SDS011;1095;50.992;6.798;2022-07-06T00:29:04;8.80;;;4.55;;
2177;SDS011;1095;50.992;6.798;2022-07-06T00:31:31;11.27;;;4.70;;
2177;SDS011;1095;50.992;6.798;2022-07-06T00:33:59;8.13;;;4.78;;
2177;SDS011;1095;50.992;6.798;2022-07-06T00:36:26;7.88;;;4.80;;
2177;SDS011;1095;50.992;6.798;2022-07-06T00:38:52;9.60;;;4.70;;
2177;SDS011;1095;50.992;6.798;2022-07-06T00:41:19;8.75;;;4.90;;
2177;SDS011;1095;50.992;6.798;2022-07-06T00:43:46;9.35;;;5.13;;
2177;SDS011;1095;50.992;6.798;2022-07-06T00:46:14;8.48;;;5.10;;
2177;SDS011;1095;50.992;6.798;2022-07-06T00:48:41;7.45;;;5.13;;
2177;SDS011;1095;50.992;6.798;2022-07-06T00:51:09;8.95;;;5.30;;
2177;SDS011;1095;50.992;6.798;2022-07-06T00:53:36;8.77;;;6.00;;
2177;SDS011;1095;50.992;6.798;2022-07-06T00:56:03;8.50;;;5.65;;
2177;SDS011;1095;50.992;6.798;2022-07-06T00:58:30;8.25;;;5.38;;
2177;SDS011;1095;50.992;6.798;2022-07-06T01:00:57;7.57;;;5.45;;
2177;SDS011;1095;50.992;6.798;2022-07-06T01:03:23;8.05;;;5.32;;
2177;SDS011;1095;50.992;6.798;2022-07-06T01:05:50;9.13;;;5.82;;
2177;SDS011;1095;50.992;6.798;2022-07-06T01:08:18;9.68;;;5.72;;
2177;SDS011;1095;50.992;6.798;2022-07-06T01:10:45;7.68;;;5.47;;
2177;SDS011;1095;50.992;6.798;2022-07-06T01:13:12;7.35;;;5.30;;
2177;SDS011;1095;50.992;6.798;2022-07-06T01:15:39;8.35;;;5.53;;
2177;SDS011;1095;50.992;6.798;2022-07-06T01:18:05;7.30;;;5.40;;
2177;SDS011;1095;50.992;6.798;2022-07-06T01:20:33;8.13;;;5.03;;
2177;SDS011;1095;50.992;6.798;2022-07-06T01:23:00;10.80;;;5.63;;
2177;SDS011;1095;50.992;6.798;2022-07-06T01:25:27;10.68;;;5.90;;
2177;SDS011;1095;50.992;6.798;2022-07-06T01:27:53;9.77;;;5.97;;
2177;SDS011;1095;50.992;6.798;2022-07-06T01:30:20;13.13;;;5.32;;
2177;SDS011;1095;50.992;6.798;2022-07-06T01:32:47;9.38;;;5.72;;
2177;SDS011;1095;50.992;6.798;2022-07-06T01:35:14;9.82;;;5.60;;
2177;SDS011;1095;50.992;6.798;2022-07-06T01:37:42;10.20;;;5.57;;
2177;SDS011;1095;50.992;6.798;2022-07-06T01:40:10;9.82;;;5.40;;
2177;SDS011;1095;50.992;6.798;2022-07-06T01:42:38;6.63;;;5.13;;
2177;SDS011;1095;50.992;6.798;2022-07-06T01:45:06;8.40;;;4.72;;
2177;SDS011;1095;50.992;6.798;2022-07-06T01:47:33;10.00;;;5.60;;
2177;SDS011;1095;50.992;6.798;2022-07-06T01:50:00;8.93;;;5.50;;
2177;SDS011;1095;50.992;6.798;2022-07-06T01:52:29;7.75;;;5.22;;
2177;SDS011;1095;50.992;6.798;2022-07-06T01:54:57;8.75;;;5.32;;
2177;SDS011;1095;50.992;6.798;2022-07-06T01:57:24;6.10;;;4.80;;
2177;SDS011;1095;50.992;6.798;2022-07-06T01:59:50;6.93;;;5.00;;
2177;SDS011;1095;50.992;6.798;2022-07-06T02:02:17;8.13;;;5.10;;
2177;SDS011;1095;50.992;6.798;2022-07-06T02:04:43;7.95;;;5.70;;
2177;SDS011;1095;50.992;6.798;2022-07-06T02:07:10;7.57;;;5.20;;
2177;SDS011;1095;50.992;6.798;2022-07-06T02:09:37;10.30;;;5.35;;
2177;SDS011;1095;50.992;6.798;2022-07-06T02:12:05;8.02;;;4.90;;
2177;SDS011;1095;50.992;6.798;2022-07-06T02:14:32;6.70;;;4.90;;
2177;SDS011;1095;50.992;6.798;2022-07-06T02:16:59;7.00;;;5.00;;
2177;SDS011;1095;50.992;6.798;2022-07-06T02:19:25;8.30;;;5.10;;
2177;SDS011;1095;50.992;6.798;2022-07-06T02:21:52;7.43;;;4.85;;
2177;SDS011;1095;50.992;6.798;2022-07-06T02:24:18;7.50;;;5.03;;
2177;SDS011;1095;50.992;6.798;2022-07-06T02:26:45;8.27;;;5.05;;
2177;SDS011;1095;50.992;6.798;2022-07-06T02:29:13;6.45;;;5.10;;
2177;SDS011;1095;50.992;6.798;2022-07-06T02:34:59;8.02;;;4.80;;
2177;SDS011;1095;50.992;6.798;2022-07-06T02:37:22;7.78;;;4.93;;
2177;SDS011;1095;50.992;6.798;2022-07-06T02:40:00;7.13;;;5.15;;
2177;SDS011;1095;50.992;6.798;2022-07-06T02:42:27;7.35;;;4.35;;
2177;SDS011;1095;50.992;6.798;2022-07-06T02:44:55;9.30;;;4.97;;
2177;SDS011;1095;50.992;6.798;2022-07-06T02:47:24;9.45;;;5.35;;
2177;SDS011;1095;50.992;6.798;2022-07-06T02:50:02;7.60;;;4.97;;
2177;SDS011;1095;50.992;6.798;2022-07-06T02:52:57;7.18;;;4.95;;
2177;SDS011;1095;50.992;6.798;2022-07-06T02:55:30;8.07;;;4.80;;
2177;SDS011;1095;50.992;6.798;2022-07-06T02:58:14;9.32;;;5.70;;
2177;SDS011;1095;50.992;6.798;2022-07-06T03:00:47;8.77;;;5.15;;
2177;SDS011;1095;50.992;6.798;2022-07-06T03:03:17;13.53;;;6.40;;
2177;SDS011;1095;50.992;6.798;2022-07-06T03:05:46;9.85;;;6.57;;
2177;SDS011;1095;50.992;6.798;2022-07-06T03:08:23;6.68;;;5.00;;
2177;SDS011;1095;50.992;6.798;2022-07-06T03:11:04;9.02;;;5.13;;
2177;SDS011;1095;50.992;6.798;2022-07-06T03:13:39;7.47;;;4.95;;
2177;SDS011;1095;50.992;6.798;2022-07-06T03:16:24;7.43;;;4.95;;
2177;SDS011;1095;50.992;6.798;2022-07-06T03:30:39;7.97;;;5.32;;
2177;SDS011;1095;50.992;6.798;2022-07-06T03:44:35;12.80;;;5.72;;
2177;SDS011;1095;50.992;6.798;2022-07-06T03:47:01;7.47;;;5.38;;
2177;SDS011;1095;50.992;6.798;2022-07-06T03:49:28;7.78;;;5.65;;
2177;SDS011;1095;50.992;6.798;2022-07-06T03:51:55;9.73;;;6.00;;
2177;SDS011;1095;50.992;6.798;2022-07-06T03:54:22;10.85;;;6.38;;
2177;SDS011;1095;50.992;6.798;2022-07-06T03:56:50;9.68;;;5.97;;
2177;SDS011;1095;50.992;6.798;2022-07-06T03:59:17;9.43;;;5.43;;
2177;SDS011;1095;50.992;6.798;2022-07-06T04:01:43;10.98;;;5.43;;
2177;SDS011;1095;50.992;6.798;2022-07-06T04:04:10;8.88;;;5.60;;
2177;SDS011;1095;50.992;6.798;2022-07-06T04:06:36;10.07;;;6.63;;
2177;SDS011;1095;50.992;6.798;2022-07-06T04:09:03;9.02;;;6.13;;
2177;SDS011;1095;50.992;6.798;2022-07-06T04:11:30;8.15;;;5.82;;
2177;SDS011;1095;50.992;6.798;2022-07-06T04:13:58;7.95;;;5.53;;
2177;SDS011;1095;50.992;6.798;2022-07-06T04:16:24;9.68;;;6.22;;
2177;SDS011;1095;50.992;6.798;2022-07-06T04:18:51;8.82;;;5.85;;
2177;SDS011;1095;50.992;6.798;2022-07-06T04:21:18;9.90;;;6.75;;
2177;SDS011;1095;50.992;6.798;2022-07-06T04:23:44;8.10;;;6.28;;
2177;SDS011;1095;50.992;6.798;2022-07-06T04:26:11;10.07;;;5.90;;
2177;SDS011;1095;50.992;6.798;2022-07-06T04:28:37;12.25;;;6.00;;
2177;SDS011;1095;50.992;6.798;2022-07-06T04:31:05;7.32;;;5.60;;
2177;SDS011;1095;50.992;6.798;2022-07-06T04:33:32;8.05;;;5.68;;
2177;SDS011;1095;50.992;6.798;2022-07-06T04:36:00;8.80;;;5.30;;
2177;SDS011;1095;50.992;6.798;2022-07-06T04:38:26;9.90;;;5.75;;
2177;SDS011;1095;50.992;6.798;2022-07-06T04:40:53;13.35;;;5.93;;
2177;SDS011;1095;50.992;6.798;2022-07-06T04:43:20;9.20;;;5.93;;
2177;SDS011;1095;50.992;6.798;2022-07-06T04:45:46;8.63;;;5.28;;
2177;SDS011;1095;50.992;6.798;2022-07-06T04:48:14;11.13;;;5.45;;
2177;SDS011;1095;50.992;6.798;2022-07-06T04:50:41;8.00;;;4.90;;
2177;SDS011;1095;50.992;6.798;2022-07-06T04:53:08;9.73;;;5.00;;
2177;SDS011;1095;50.992;6.798;2022-07-06T04:55:35;8.15;;;5.22;;
2177;SDS011;1095;50.992;6.798;2022-07-06T04:58:02;10.23;;;5.03;;
2177;SDS011;1095;50.992;6.798;2022-07-06T05:00:28;8.63;;;5.10;;
2177;SDS011;1095;50.992;6.798;2022-07-06T05:02:56;10.15;;;5.28;;
2177;SDS011;1095;50.992;6.798;2022-07-06T05:05:24;7.43;;;4.65;;
2177;SDS011;1095;50.992;6.798;2022-07-06T05:07:51;9.25;;;4.85;;
2177;SDS011;1095;50.992;6.798;2022-07-06T05:10:17;9.05;;;5.60;;
2177;SDS011;1095;50.992;6.798;2022-07-06T05:12:44;9.65;;;5.55;;
2177;SDS011;1095;50.992;6.798;2022-07-06T05:15:10;9.30;;;5.03;;
2177;SDS011;1095;50.992;6.798;2022-07-06T05:17:37;8.25;;;4.90;;
2177;SDS011;1095;50.992;6.798;2022-07-06T05:20:04;6.63;;;4.57;;
2177;SDS011;1095;50.992;6.798;2022-07-06T05:22:33;8.30;;;4.43;;
2177;SDS011;1095;50.992;6.798;2022-07-06T05:25:00;11.45;;;4.30;;
2177;SDS011;1095;50.992;6.798;2022-07-06T05:27:29;9.10;;;4.00;;
2177;SDS011;1095;50.992;6.798;2022-07-06T05:29:56;6.90;;;4.25;;
2177;SDS011;1095;50.992;6.798;2022-07-06T05:32:23;6.65;;;3.70;;
2177;SDS011;1095;50.992;6.798;2022-07-06T05:34:49;8.32;;;4.20;;
2177;SDS011;1095;50.992;6.798;2022-07-06T05:37:16;8.25;;;4.20;;
2177;SDS011;1095;50.992;6.798;2022-07-06T05:39:44;7.95;;;3.85;;
2177;SDS011;1095;50.992;6.798;2022-07-06T05:42:12;8.40;;;4.07;;
2177;SDS011;1095;50.992;6.798;2022-07-06T05:44:38;6.70;;;3.65;;
2177;SDS011;1095;50.992;6.798;2022-07-06T05:47:05;11.20;;;4.80;;
2177;SDS011;1095;50.992;6.798;2022-07-06T05:49:49;6.85;;;3.90;;
2177;SDS011;1095;50.992;6.798;2022-07-06T05:52:33;9.63;;;4.43;;
2177;SDS011;1095;50.992;6.798;2022-07-06T05:55:02;8.13;;;4.13;;
2177;SDS011;1095;50.992;6.798;2022-07-06T05:57:28;9.93;;;4.07;;
2177;SDS011;1095;50.992;6.798;2022-07-06T05:59:55;7.72;;;3.92;;
2177;SDS011;1095;50.992;6.798;2022-07-06T06:02:22;8.95;;;3.70;;
2177;SDS011;1095;50.992;6.798;2022-07-06T06:04:49;6.53;;;3.42;;
2177;SDS011;1095;50.992;6.798;2022-07-06T06:07:15;4.30;;;3.33;;
2177;SDS011;1095;50.992;6.798;2022-07-06T06:09:42;8.27;;;3.47;;
2177;SDS011;1095;50.992;6.798;2022-07-06T06:12:11;8.40;;;3.53;;
2177;SDS011;1095;50.992;6.798;2022-07-06T06:14:37;7.70;;;3.38;;
2177;SDS011;1095;50.992;6.798;2022-07-06T06:17:04;8.23;;;3.38;;
2177;SDS011;1095;50.992;6.798;2022-07-06T06:19:34;9.25;;;3.53;;
2177;SDS011;1095;50.992;6.798;2022-07-06T06:22:01;8.55;;;3.50;;
2177;SDS011;1095;50.992;6.798;2022-07-06T06:24:28;7.82;;;3.83;;
2177;SDS011;1095;50.992;6.798;2022-07-06T06:26:55;8.23;;;3.40;;
2177;SDS011;1095;50.992;6.798;2022-07-06T06:29:24;7.93;;;3.50;;
2177;SDS011;1095;50.992;6.798;2022-07-06T06:31:51;6.60;;;2.97;;
2177;SDS011;1095;50.992;6.798;2022-07-06T06:34:17;8.48;;;3.45;;
2177;SDS011;1095;50.992;6.798;2022-07-06T06:36:44;5.40;;;3.47;;
2177;SDS011;1095;50.992;6.798;2022-07-06T06:39:10;9.00;;;3.08;;
2177;SDS011;1095;50.992;6.798;2022-07-06T06:41:37;7.13;;;3.28;;
2177;SDS011;1095;50.992;6.798;2022-07-06T06:44:04;9.52;;;3.17;;
2177;SDS011;1095;50.992;6.798;2022-07-06T06:46:32;9.73;;;3.40;;
2177;SDS011;1095;50.992;6.798;2022-07-06T06:48:59;7.30;;;3.45;;
2177;SDS011;1095;50.992;6.798;2022-07-06T06:51:25;7.72;;;3.88;;
2177;SDS011;1095;50.992;6.798;2022-07-06T06:53:52;6.80;;;4.25;;
2177;SDS011;1095;50.992;6.798;2022-07-06T06:56:19;15.60;;;4.45;;
2177;SDS011;1095;50.992;6.798;2022-07-06T06:58:45;9.68;;;3.63;;
2177;SDS011;1095;50.992;6.798;2022-07-06T07:01:12;9.27;;;3.22;;
2177;SDS011;1095;50.992;6.798;2022-07-06T07:03:40;11.27;;;3.88;;
2177;SDS011;1095;50.992;6.798;2022-07-06T07:06:07;4.90;;;3.13;;
2177;SDS011;1095;50.992;6.798;2022-07-06T07:08:33;9.07;;;3.80;;
2177;SDS011;1095;50.992;6.798;2022-07-06T07:11:00;4.75;;;2.88;;
2177;SDS011;1095;50.992;6.798;2022-07-06T07:13:27;5.45;;;3.00;;
2177;SDS011;1095;50.992;6.798;2022-07-06T07:15:53;4.47;;;2.72;;
2177;SDS011;1095;50.992;6.798;2022-07-06T07:18:22;6.63;;;2.55;;
2177;SDS011;1095;50.992;6.798;2022-07-06T07:20:50;7.30;;;3.10;;
2177;SDS011;1095;50.992;6.798;2022-07-06T07:23:17;8.85;;;2.50;;
2177;SDS011;1095;50.992;6.798;2022-07-06T07:25:43;3.47;;;2.05;;
2177;SDS011;1095;50.992;6.798;2022-07-06T07:28:10;4.93;;;2.10;;
2177;SDS011;1095;50.992;6.798;2022-07-06T07:30:39;4.55;;;2.30;;
2177;SDS011;1095;50.992;6.798;2022-07-06T07:33:05;5.43;;;2.67;;
2177;SDS011;1095;50.992;6.798;2022-07-06T07:35:33;7.75;;;2.78;;
2177;SDS011;1095;50.992;6.798;2022-07-06T07:38:01;5.72;;;2.67;;
2177;SDS011;1095;50.992;6.798;2022-07-06T07:40:28;7.03;;;2.70;;
2177;SDS011;1095;50.992;6.798;2022-07-06T07:42:54;6.35;;;2.70;;
2177;SDS011;1095;50.992;6.798;2022-07-06T07:45:21;7.22;;;2.40;;
2177;SDS011;1095;50.992;6.798;2022-07-06T07:47:48;6.07;;;2.53;;
2177;SDS011;1095;50.992;6.798;2022-07-06T07:50:14;5.80;;;2.45;;
2177;SDS011;1095;50.992;6.798;2022-07-06T07:52:41;4.22;;;2.25;;
2177;SDS011;1095;50.992;6.798;2022-07-06T07:55:10;4.65;;;3.33;;
2177;SDS011;1095;50.992;6.798;2022-07-06T07:57:36;3.72;;;2.20;;
2177;SDS011;1095;50.992;6.798;2022-07-06T08:00:04;4.20;;;2.13;;
2177;SDS011;1095;50.992;6.798;2022-07-06T08:02:31;6.47;;;2.28;;
2177;SDS011;1095;50.992;6.798;2022-07-06T08:05:00;5.63;;;2.70;;
2177;SDS011;1095;50.992;6.798;2022-07-06T08:07:26;5.82;;;2.00;;
2177;SDS011;1095;50.992;6.798;2022-07-06T08:09:53;4.97;;;2.22;;
2177;SDS011;1095;50.992;6.798;2022-07-06T08:12:29;6.28;;;2.35;;
2177;SDS011;1095;50.992;6.798;2022-07-06T08:14:59;5.38;;;1.90;;
2177;SDS011;1095;50.992;6.798;2022-07-06T08:17:26;7.90;;;2.40;;
2177;SDS011;1095;50.992;6.798;2022-07-06T08:19:52;7.03;;;2.10;;
2177;SDS011;1095;50.992;6.798;2022-07-06T08:22:26;3.00;;;1.92;;
2177;SDS011;1095;50.992;6.798;2022-07-06T08:24:54;3.85;;;2.33;;
2177;SDS011;1095;50.992;6.798;2022-07-06T08:27:28;5.53;;;2.13;;
2177;SDS011;1095;50.992;6.798;2022-07-06T08:30:12;4.10;;;1.60;;
2177;SDS011;1095;50.992;6.798;2022-07-06T08:32:46;5.30;;;2.13;;
2177;SDS011;1095;50.992;6.798;2022-07-06T08:35:18;3.50;;;1.83;;
2177;SDS011;1095;50.992;6.798;2022-07-06T08:37:58;5.53;;;1.80;;
2177;SDS011;1095;50.992;6.798;2022-07-06T08:40:25;3.38;;;2.13;;
2177;SDS011;1095;50.992;6.798;2022-07-06T08:42:58;2.70;;;1.90;;
2177;SDS011;1095;50.992;6.798;2022-07-06T08:45:26;3.67;;;2.13;;
2177;SDS011;1095;50.992;6.798;2022-07-06T08:47:54;3.45;;;2.00;;
2177;SDS011;1095;50.992;6.798;2022-07-06T08:50:21;3.50;;;2.00;;
2177;SDS011;1095;50.992;6.798;2022-07-06T08:52:48;4.40;;;2.25;;
2177;SDS011;1095;50.992;6.798;2022-07-06T08:55:15;5.40;;;2.40;;
2177;SDS011;1095;50.992;6.798;2022-07-06T08:57:43;6.68;;;2.15;;
2177;SDS011;1095;50.992;6.798;2022-07-06T09:00:14;6.18;;;2.33;;
2177;SDS011;1095;50.992;6.798;2022-07-06T09:02:41;3.85;;;2.20;;
2177;SDS011;1095;50.992;6.798;2022-07-06T09:05:09;2.97;;;1.83;;
2177;SDS011;1095;50.992;6.798;2022-07-06T09:07:40;6.70;;;2.28;;
2177;SDS011;1095;50.992;6.798;2022-07-06T09:10:07;3.42;;;1.75;;
2177;SDS011;1095;50.992;6.798;2022-07-06T09:12:35;4.25;;;2.20;;
2177;SDS011;1095;50.992;6.798;2022-07-06T09:15:01;4.80;;;2.28;;
2177;SDS011;1095;50.992;6.798;2022-07-06T09:17:30;5.40;;;1.70;;
2177;SDS011;1095;50.992;6.798;2022-07-06T09:19:57;4.32;;;2.10;;
2177;SDS011;1095;50.992;6.798;2022-07-06T09:22:27;6.88;;;2.45;;
2177;SDS011;1095;50.992;6.798;2022-07-06T09:25:04;6.25;;;2.22;;
2177;SDS011;1095;50.992;6.798;2022-07-06T09:27:31;4.70;;;2.20;;
2177;SDS011;1095;50.992;6.798;2022-07-06T09:30:02;5.90;;;2.28;;
2177;SDS011;1095;50.992;6.798;2022-07-06T09:32:32;6.53;;;1.88;;
2177;SDS011;1095;50.992;6.798;2022-07-06T09:35:04;3.72;;;2.30;;
2177;SDS011;1095;50.992;6.798;2022-07-06T09:37:32;6.68;;;2.75;;
2177;SDS011;1095;50.992;6.798;2022-07-06T09:39:58;4.38;;;2.55;;
2177;SDS011;1095;50.992;6.798;2022-07-06T09:42:25;5.15;;;2.25;;
2177;SDS011;1095;50.992;6.798;2022-07-06T09:45:10;7.13;;;2.70;;
2177;SDS011;1095;50.992;6.798;2022-07-06T09:48:00;7.90;;;2.58;;
2177;SDS011;1095;50.992;6.798;2022-07-06T09:50:47;5.93;;;2.22;;
2177;SDS011;1095;50.992;6.798;2022-07-06T09:53:28;4.78;;;2.95;;
2177;SDS011;1095;50.992;6.798;2022-07-06T09:56:36;4.15;;;2.63;;
2177;SDS011;1095;50.992;6.798;2022-07-06T09:59:15;4.40;;;2.47;;
2177;SDS011;1095;50.992;6.798;2022-07-06T10:01:43;5.35;;;2.25;;
2177;SDS011;1095;50.992;6.798;2022-07-06T10:04:31;4.57;;;2.33;;
2177;SDS011;1095;50.992;6.798;2022-07-06T10:07:11;4.95;;;3.15;;
2177;SDS011;1095;50.992;6.798;2022-07-06T10:09:44;3.63;;;1.77;;
2177;SDS011;1095;50.992;6.798;2022-07-06T10:12:22;3.92;;;2.28;;
2177;SDS011;1095;50.992;6.798;2022-07-06T10:14:52;5.35;;;2.13;;
2177;SDS011;1095;50.992;6.798;2022-07-06T10:17:21;4.13;;;2.00;;
2177;SDS011;1095;50.992;6.798;2022-07-06T10:19:58;5.55;;;2.30;;
2177;SDS011;1095;50.992;6.798;2022-07-06T10:22:31;5.60;;;2.17;;
2177;SDS011;1095;50.992;6.798;2022-07-06T10:25:19;5.85;;;2.47;;
2177;SDS011;1095;50.992;6.798;2022-07-06T10:27:48;5.28;;;2.13;;
2177;SDS011;1095;50.992;6.798;2022-07-06T10:30:22;3.95;;;1.88;;
2177;SDS011;1095;50.992;6.798;2022-07-06T10:32:53;3.65;;;1.85;;
2177;SDS011;1095;50.992;6.798;2022-07-06T10:35:30;3.97;;;2.10;;
2177;SDS011;1095;50.992;6.798;2022-07-06T10:38:04;5.25;;;2.00;;
2177;SDS011;1095;50.992;6.798;2022-07-06T10:40:34;4.25;;;2.08;;
2177;SDS011;1095;50.992;6.798;2022-07-06T10:43:19;5.05;;;1.95;;
2177;SDS011;1095;50.992;6.798;2022-07-06T10:45:50;6.78;;;1.92;;
2177;SDS011;1095;50.992;6.798;2022-07-06T10:48:18;3.58;;;1.95;;
2177;SDS011;1095;50.992;6.798;2022-07-06T10:50:48;7.80;;;2.30;;
2177;SDS011;1095;50.992;6.798;2022-07-06T10:53:17;3.63;;;1.77;;
2177;SDS011;1095;50.992;6.798;2022-07-06T10:55:48;4.43;;;2.00;;
2177;SDS011;1095;50.992;6.798;2022-07-06T11:01:06;4.22;;;2.05;;
2177;SDS011;1095;50.992;6.798;2022-07-06T11:03:37;4.53;;;2.03;;
2177;SDS011;1095;50.992;6.798;2022-07-06T11:06:15;2.08;;;1.80;;
2177;SDS011;1095;50.992;6.798;2022-07-06T11:08:49;4.32;;;2.33;;
2177;SDS011;1095;50.992;6.798;2022-07-06T11:11:21;3.40;;;1.98;;
2177;SDS011;1095;50.992;6.798;2022-07-06T11:13:52;3.50;;;2.58;;
2177;SDS011;1095;50.992;6.798;2022-07-06T11:19:00;3.13;;;2.30;;
2177;SDS011;1095;50.992;6.798;2022-07-06T11:21:34;5.88;;;2.42;;
2177;SDS011;1095;50.992;6.798;2022-07-06T11:24:03;3.22;;;2.05;;
2177;SDS011;1095;50.992;6.798;2022-07-06T11:26:33;4.15;;;2.05;;
2177;SDS011;1095;50.992;6.798;2022-07-06T11:29:02;6.22;;;2.83;;
2177;SDS011;1095;50.992;6.798;2022-07-06T11:31:32;5.63;;;2.10;;
2177;SDS011;1095;50.992;6.798;2022-07-06T11:34:01;7.38;;;2.70;;
2177;SDS011;1095;50.992;6.798;2022-07-06T11:36:31;4.72;;;2.60;;
2177;SDS011;1095;50.992;6.798;2022-07-06T11:38:59;3.92;;;2.47;;
2177;SDS011;1095;50.992;6.798;2022-07-06T11:41:26;5.75;;;2.83;;
2177;SDS011;1095;50.992;6.798;2022-07-06T11:43:53;3.10;;;2.35;;
2177;SDS011;1095;50.992;6.798;2022-07-06T11:46:24;3.67;;;2.25;;
2177;SDS011;1095;50.992;6.798;2022-07-06T11:48:52;4.70;;;3.20;;
2177;SDS011;1095;50.992;6.798;2022-07-06T11:51:21;2.70;;;2.30;;
2177;SDS011;1095;50.992;6.798;2022-07-06T11:53:50;8.75;;;3.10;;
2177;SDS011;1095;50.992;6.798;2022-07-06T11:56:19;4.80;;;2.30;;
2177;SDS011;1095;50.992;6.798;2022-07-06T11:58:55;4.28;;;2.40;;
2177;SDS011;1095;50.992;6.798;2022-07-06T12:01:23;4.25;;;2.20;;
2177;SDS011;1095;50.992;6.798;2022-07-06T12:03:51;4.22;;;2.25;;
2177;SDS011;1095;50.992;6.798;2022-07-06T12:06:19;3.70;;;2.50;;
2177;SDS011;1095;50.992;6.798;2022-07-06T12:08:47;6.35;;;2.63;;
2177;SDS011;1095;50.992;6.798;2022-07-06T12:11:18;3.40;;;2.13;;
2177;SDS011;1095;50.992;6.798;2022-07-06T12:13:46;7.00;;;2.50;;
2177;SDS011;1095;50.992;6.798;2022-07-06T12:16:16;4.20;;;3.17;;
2177;SDS011;1095;50.992;6.798;2022-07-06T12:18:48;8.85;;;2.65;;
2177;SDS011;1095;50.992;6.798;2022-07-06T12:21:18;4.05;;;2.70;;
2177;SDS011;1095;50.992;6.798;2022-07-06T12:23:52;3.05;;;2.30;;
2177;SDS011;1095;50.992;6.798;2022-07-06T12:26:21;5.32;;;2.47;;
2177;SDS011;1095;50.992;6.798;2022-07-06T12:29:00;4.60;;;2.88;;
2177;SDS011;1095;50.992;6.798;2022-07-06T12:31:31;4.28;;;2.38;;
2177;SDS011;1095;50.992;6.798;2022-07-06T12:33:59;8.32;;;2.25;;
2177;SDS011;1095;50.992;6.798;2022-07-06T12:36:51;7.28;;;2.17;;
2177;SDS011;1095;50.992;6.798;2022-07-06T12:39:28;7.60;;;2.25;;
2177;SDS011;1095;50.992;6.798;2022-07-06T12:41:55;3.90;;;2.38;;
2177;SDS011;1095;50.992;6.798;2022-07-06T12:47:01;9.20;;;2.63;;
2177;SDS011;1095;50.992;6.798;2022-07-06T12:49:29;5.95;;;2.15;;
2177;SDS011;1095;50.992;6.798;2022-07-06T12:51:57;8.15;;;2.63;;
2177;SDS011;1095;50.992;6.798;2022-07-06T12:54:31;5.10;;;2.60;;
2177;SDS011;1095;50.992;6.798;2022-07-06T12:57:03;7.82;;;2.50;;
2177;SDS011;1095;50.992;6.798;2022-07-06T12:59:35;5.05;;;2.20;;
2177;SDS011;1095;50.992;6.798;2022-07-06T13:02:04;7.32;;;2.47;;
2177;SDS011;1095;50.992;6.798;2022-07-06T13:04:33;6.53;;;2.55;;
2177;SDS011;1095;50.992;6.798;2022-07-06T13:07:05;4.55;;;2.75;;
2177;SDS011;1095;50.992;6.798;2022-07-06T13:09:34;4.72;;;2.08;;
2177;SDS011;1095;50.992;6.798;2022-07-06T13:12:01;6.05;;;1.90;;
2177;SDS011;1095;50.992;6.798;2022-07-06T13:14:28;5.00;;;2.35;;
2177;SDS011;1095;50.992;6.798;2022-07-06T13:16:54;8.55;;;2.30;;
2177;SDS011;1095;50.992;6.798;2022-07-06T13:19:21;4.07;;;2.08;;
2177;SDS011;1095;50.992;6.798;2022-07-06T13:21:48;5.93;;;2.72;;
2177;SDS011;1095;50.992;6.798;2022-07-06T13:24:15;6.65;;;2.95;;
2177;SDS011;1095;50.992;6.798;2022-07-06T13:26:43;15.15;;;3.35;;
2177;SDS011;1095;50.992;6.798;2022-07-06T13:29:11;4.47;;;2.30;;
2177;SDS011;1095;50.992;6.798;2022-07-06T13:31:41;4.00;;;2.28;;
2177;SDS011;1095;50.992;6.798;2022-07-06T13:34:08;5.40;;;2.35;;
2177;SDS011;1095;50.992;6.798;2022-07-06T13:36:38;4.32;;;2.60;;
2177;SDS011;1095;50.992;6.798;2022-07-06T13:39:12;5.45;;;2.85;;
2177;SDS011;1095;50.992;6.798;2022-07-06T13:41:47;2.72;;;2.05;;
2177;SDS011;1095;50.992;6.798;2022-07-06T13:46:42;4.40;;;2.13;;
2177;SDS011;1095;50.992;6.798;2022-07-06T13:49:09;6.68;;;2.78;;
2177;SDS011;1095;50.992;6.798;2022-07-06T13:51:36;7.05;;;2.90;;
2177;SDS011;1095;50.992;6.798;2022-07-06T13:54:03;7.70;;;2.65;;
2177;SDS011;1095;50.992;6.798;2022-07-06T13:56:38;7.30;;;2.63;;
2177;SDS011;1095;50.992;6.798;2022-07-06T14:05:16;5.65;;;2.40;;
2177;SDS011;1095;50.992;6.798;2022-07-06T14:07:46;7.50;;;2.42;;
2177;SDS011;1095;50.992;6.798;2022-07-06T14:10:27;4.18;;;2.28;;
2177;SDS011;1095;50.992;6.798;2022-07-06T14:16:01;4.28;;;2.22;;
2177;SDS011;1095;50.992;6.798;2022-07-06T14:22:19;6.50;;;2.50;;
2177;SDS011;1095;50.992;6.798;2022-07-06T14:27:25;5.50;;;2.90;;
2177;SDS011;1095;50.992;6.798;2022-07-06T14:30:13;7.00;;;2.95;;
2177;SDS011;1095;50.992;6.798;2022-07-06T14:33:07;5.20;;;2.58;;
2177;SDS011;1095;50.992;6.798;2022-07-06T14:35:42;3.75;;;2.22;;
2177;SDS011;1095;50.992;6.798;2022-07-06T14:38:38;5.50;;;2.00;;
2177;SDS011;1095;50.992;6.798;2022-07-06T14:41:05;5.00;;;2.38;;
2177;SDS011;1095;50.992;6.798;2022-07-06T14:46:38;4.10;;;2.30;;
2177;SDS011;1095;50.992;6.798;2022-07-06T14:49:11;4.70;;;2.78;;
2177;SDS011;1095;50.992;6.798;2022-07-06T14:51:38;5.88;;;2.90;;
2177;SDS011;1095;50.992;6.798;2022-07-06T14:54:14;5.07;;;2.55;;
2177;SDS011;1095;50.992;6.798;2022-07-06T14:56:56;3.30;;;2.50;;
2177;SDS011;1095;50.992;6.798;2022-07-06T14:59:57;6.75;;;2.63;;
2177;SDS011;1095;50.992;6.798;2022-07-06T15:02:26;3.10;;;2.70;;
2177;SDS011;1095;50.992;6.798;2022-07-06T15:04:55;5.05;;;2.47;;
2177;SDS011;1095;50.992;6.798;2022-07-06T15:07:29;8.02;;;2.40;;
2177;SDS011;1095;50.992;6.798;2022-07-06T15:10:05;5.00;;;2.28;;
2177;SDS011;1095;50.992;6.798;2022-07-06T15:12:39;8.40;;;2.65;;
2177;SDS011;1095;50.992;6.798;2022-07-06T15:15:09;2.85;;;2.10;;
2177;SDS011;1095;50.992;6.798;2022-07-06T15:17:39;4.05;;;2.15;;
2177;SDS011;1095;50.992;6.798;2022-07-06T15:20:12;4.30;;;2.55;;
2177;SDS011;1095;50.992;6.798;2022-07-06T15:23:05;4.68;;;2.75;;
2177;SDS011;1095;50.992;6.798;2022-07-06T15:25:56;4.80;;;2.65;;
2177;SDS011;1095;50.992;6.798;2022-07-06T15:28:28;5.22;;;2.40;;
2177;SDS011;1095;50.992;6.798;2022-07-06T15:31:17;8.70;;;2.80;;
2177;SDS011;1095;50.992;6.798;2022-07-06T15:33:47;4.13;;;2.15;;
2177;SDS011;1095;50.992;6.798;2022-07-06T15:36:14;5.55;;;2.28;;
2177;SDS011;1095;50.992;6.798;2022-07-06T15:38:41;6.43;;;2.42;;
2177;SDS011;1095;50.992;6.798;2022-07-06T15:41:09;3.50;;;2.55;;
2177;SDS011;1095;50.992;6.798;2022-07-06T15:43:36;6.65;;;2.28;;
2177;SDS011;1095;50.992;6.798;2022-07-06T15:46:03;5.43;;;2.40;;
2177;SDS011;1095;50.992;6.798;2022-07-06T15:48:30;6.78;;;2.85;;
2177;SDS011;1095;50.992;6.798;2022-07-06T15:50:58;5.88;;;2.50;;
2177;SDS011;1095;50.992;6.798;2022-07-06T15:53:25;5.53;;;2.40;;
2177;SDS011;1095;50.992;6.798;2022-07-06T15:55:52;10.25;;;2.90;;
2177;SDS011;1095;50.992;6.798;2022-07-06T15:58:20;7.22;;;3.00;;
2177;SDS011;1095;50.992;6.798;2022-07-06T16:00:47;4.47;;;3.08;;
2177;SDS011;1095;50.992;6.798;2022-07-06T16:03:16;3.97;;;2.95;;
2177;SDS011;1095;50.992;6.798;2022-07-06T16:05:44;6.22;;;2.83;;
2177;SDS011;1095;50.992;6.798;2022-07-06T16:08:12;3.65;;;2.53;;
2177;SDS011;1095;50.992;6.798;2022-07-06T16:10:38;6.25;;;2.83;;
2177;SDS011;1095;50.992;6.798;2022-07-06T16:13:05;6.03;;;3.33;;
2177;SDS011;1095;50.992;6.798;2022-07-06T16:15:33;8.15;;;3.10;;
2177;SDS011;1095;50.992;6.798;2022-07-06T16:18:00;5.53;;;3.08;;
2177;SDS011;1095;50.992;6.798;2022-07-06T16:20:26;5.47;;;2.72;;
2177;SDS011;1095;50.992;6.798;2022-07-06T16:22:53;5.88;;;2.60;;
2177;SDS011;1095;50.992;6.798;2022-07-06T16:25:20;4.20;;;2.55;;
2177;SDS011;1095;50.992;6.798;2022-07-06T16:27:49;3.95;;;2.75;;